createdAt,value
2023-05-16T00:02:08.960Z,8.66
2023-05-16T00:04:37.477Z,8.63
2023-05-16T00:07:06.809Z,8.62
2023-05-16T00:09:34.608Z,8.67
2023-05-16T00:12:02.514Z,8.67
2023-05-16T00:14:30.315Z,8.69
2023-05-16T00:16:59.287Z,8.64
2023-05-16T00:19:28.036Z,8.69
2023-05-16T00:21:55.796Z,8.69
2023-05-16T00:24:25.130Z,8.71
2023-05-16T00:26:52.894Z,8.74
2023-05-16T00:29:20.652Z,8.74
2023-05-16T00:31:48.453Z,8.66
2023-05-16T00:34:16.430Z,8.72
2023-05-16T00:36:44.545Z,8.74
2023-05-16T00:39:12.821Z,8.74
2023-05-16T00:41:42.149Z,8.74
2023-05-16T00:44:09.946Z,8.73
2023-05-16T00:46:37.820Z,8.72
2023-05-16T00:49:06.248Z,8.67
2023-05-16T00:51:34.196Z,8.63
2023-05-16T00:54:02.185Z,8.58
2023-05-16T00:56:30.168Z,8.58
2023-05-16T00:58:59.937Z,8.52
2023-05-16T01:01:29.728Z,8.51
2023-05-16T01:03:57.930Z,8.55
2023-05-16T01:06:25.955Z,8.50
2023-05-16T01:08:53.717Z,8.48
2023-05-16T01:11:28.323Z,8.43
2023-05-16T01:14:08.619Z,8.42
2023-05-16T01:16:41.611Z,8.38
2023-05-16T01:19:20.684Z,8.23
2023-05-16T01:21:51.372Z,8.25
2023-05-16T01:24:28.487Z,8.28
2023-05-16T01:26:59.644Z,8.24
2023-05-16T01:29:27.734Z,8.22
2023-05-16T01:31:55.621Z,8.25
2023-05-16T01:34:24.509Z,8.25
2023-05-16T01:37:00.627Z,8.23
2023-05-16T01:39:34.845Z,8.18
2023-05-16T01:42:07.226Z,8.14
2023-05-16T01:44:39.945Z,8.07
2023-05-16T01:47:13.034Z,8.03
2023-05-16T01:49:47.658Z,8.00
2023-05-16T01:52:20.613Z,7.99
2023-05-16T01:54:50.429Z,7.95
2023-05-16T01:57:21.534Z,7.93
2023-05-16T01:59:50.105Z,7.97
2023-05-16T02:02:19.542Z,7.94
2023-05-16T02:04:47.810Z,7.85
2023-05-16T02:07:16.175Z,7.87
2023-05-16T02:09:43.936Z,7.82
2023-05-16T02:12:11.723Z,7.84
2023-05-16T02:14:40.893Z,7.80
2023-05-16T02:17:09.089Z,7.78
2023-05-16T02:19:36.975Z,7.78
2023-05-16T02:22:04.838Z,7.72
2023-05-16T02:24:32.608Z,7.81
2023-05-16T02:27:00.434Z,7.82
2023-05-16T02:29:28.197Z,7.83
2023-05-16T02:31:57.364Z,7.81
2023-05-16T02:34:25.195Z,7.79
2023-05-16T02:36:52.940Z,7.82
2023-05-16T02:39:20.687Z,7.81
2023-05-16T02:41:48.494Z,7.81
2023-05-16T02:44:16.277Z,7.79
2023-05-16T02:46:44.294Z,7.77
2023-05-16T02:49:13.488Z,7.70
2023-05-16T02:51:41.277Z,7.75
2023-05-16T02:54:09.955Z,7.70
2023-05-16T02:56:37.981Z,7.73
2023-05-16T02:59:06.374Z,7.66
2023-05-16T03:01:34.819Z,7.65
2023-05-16T03:04:02.891Z,7.69
2023-05-16T03:06:33.139Z,7.67
2023-05-16T03:09:01.335Z,7.68
2023-05-16T03:11:29.170Z,7.66
2023-05-16T03:13:57.098Z,7.67
2023-05-16T03:16:24.899Z,7.66
2023-05-16T03:18:52.926Z,7.69
2023-05-16T03:21:20.685Z,7.69
2023-05-16T03:23:50.255Z,7.63
2023-05-16T03:26:18.097Z,7.53
2023-05-16T03:28:46.103Z,7.54
2023-05-16T03:31:13.912Z,7.55
2023-05-16T03:33:41.994Z,7.57
2023-05-16T03:36:10.617Z,7.58
2023-05-16T03:38:38.484Z,7.53
2023-05-16T03:41:07.681Z,7.45
2023-05-16T03:43:35.427Z,7.39
2023-05-16T03:46:03.232Z,7.45
2023-05-16T03:48:31.039Z,7.45
2023-05-16T03:50:58.799Z,7.47
2023-05-16T03:53:26.716Z,7.44
2023-05-16T03:55:54.535Z,7.39
2023-05-16T03:58:23.723Z,7.44
2023-05-16T04:00:51.646Z,7.44
2023-05-16T04:03:19.477Z,7.41
2023-05-16T04:05:47.405Z,7.39
2023-05-16T04:08:15.611Z,7.42
2023-05-16T04:10:43.349Z,7.42
2023-05-16T04:13:11.136Z,7.44
2023-05-16T04:15:40.553Z,7.47
2023-05-16T04:18:08.422Z,7.44
2023-05-16T04:20:36.740Z,7.25
2023-05-16T04:23:04.672Z,7.44
2023-05-16T04:25:32.750Z,7.42
2023-05-16T04:28:02.187Z,7.40
2023-05-16T04:30:29.957Z,7.42
2023-05-16T04:32:59.723Z,7.37
2023-05-16T04:35:28.350Z,7.23
2023-05-16T04:37:56.321Z,7.49
2023-05-16T04:40:25.192Z,7.43
2023-05-16T04:42:54.588Z,7.44
2023-05-16T04:45:22.497Z,7.53
2023-05-16T04:47:51.094Z,7.53
2023-05-16T04:50:20.618Z,7.55
2023-05-16T04:52:48.350Z,7.60
2023-05-16T04:55:16.527Z,7.61
2023-05-16T04:57:44.574Z,7.59
2023-05-16T05:00:13.720Z,7.66
2023-05-16T05:02:41.792Z,7.67
2023-05-16T05:05:10.608Z,7.72
2023-05-16T05:07:40.958Z,7.74
2023-05-16T05:10:09.673Z,7.62
2023-05-16T05:12:37.438Z,7.83
2023-05-16T05:15:06.519Z,7.87
2023-05-16T05:17:34.359Z,7.83
2023-05-16T05:20:03.293Z,7.94
2023-05-16T05:22:31.264Z,8.03
2023-05-16T05:25:00.386Z,8.09
2023-05-16T05:27:28.739Z,8.12
2023-05-16T05:29:56.490Z,8.14
2023-05-16T05:32:24.334Z,8.21
2023-05-16T05:34:52.636Z,8.27
2023-05-16T05:37:20.550Z,8.34
2023-05-16T05:39:48.542Z,8.41
2023-05-16T05:42:17.699Z,8.51
2023-05-16T05:44:45.750Z,8.63
2023-05-16T05:47:13.866Z,8.65
2023-05-16T05:49:42.003Z,8.86
2023-05-16T05:52:09.825Z,8.95
2023-05-16T05:54:37.695Z,9.03
2023-05-16T05:57:05.792Z,9.12
2023-05-16T05:59:35.190Z,9.21
2023-05-16T06:02:03.362Z,9.29
2023-05-16T06:04:31.173Z,9.42
2023-05-16T06:06:59.199Z,9.55
2023-05-16T06:09:27.107Z,9.59
2023-05-16T06:11:54.948Z,9.71
2023-05-16T06:14:22.913Z,9.83
2023-05-16T06:16:52.098Z,9.99
2023-05-16T06:19:20.045Z,10.12
2023-05-16T06:21:48.046Z,10.11
2023-05-16T06:24:16.127Z,10.30
2023-05-16T06:26:46.218Z,10.40
2023-05-16T06:29:14.004Z,10.63
2023-05-16T06:31:41.832Z,10.61
2023-05-16T06:34:11.280Z,10.71
2023-05-16T06:36:39.183Z,10.71
2023-05-16T06:39:07.567Z,10.73
2023-05-16T06:41:35.350Z,10.74
2023-05-16T06:44:03.219Z,10.89
2023-05-16T06:46:31.220Z,11.14
2023-05-16T06:48:59.129Z,11.22
2023-05-16T06:51:28.354Z,10.99
2023-05-16T06:53:56.325Z,11.01
2023-05-16T06:56:24.132Z,11.11
2023-05-16T06:58:51.983Z,11.14
2023-05-16T07:01:19.903Z,11.08
2023-05-16T07:03:48.001Z,11.29
2023-05-16T07:06:15.987Z,11.62
2023-05-16T07:08:45.229Z,11.89
2023-05-16T07:11:13.085Z,11.90
2023-05-16T07:13:40.997Z,11.62
2023-05-16T07:16:08.946Z,11.71
2023-05-16T07:18:36.905Z,11.73
2023-05-16T07:21:04.962Z,11.64
2023-05-16T07:23:32.965Z,11.63
2023-05-16T07:26:03.834Z,11.65
2023-05-16T07:28:31.681Z,11.75
2023-05-16T07:31:00.475Z,11.79
2023-05-16T07:33:28.575Z,11.90
2023-05-16T07:36:08.047Z,11.94
2023-05-16T07:38:43.890Z,12.10
2023-05-16T07:41:13.222Z,12.10
2023-05-16T07:43:41.313Z,12.22
2023-05-16T07:46:09.246Z,12.48
2023-05-16T07:48:37.159Z,12.56
2023-05-16T07:51:05.213Z,12.52
2023-05-16T07:53:33.220Z,12.45
2023-05-16T07:56:01.413Z,12.26
2023-05-16T07:58:30.892Z,12.11
2023-05-16T08:00:58.887Z,12.13
2023-05-16T08:03:27.048Z,12.09
2023-05-16T08:05:55.033Z,12.14
2023-05-16T08:08:22.940Z,12.18
2023-05-16T08:10:50.946Z,12.22
2023-05-16T08:13:18.960Z,12.30
2023-05-16T08:15:48.250Z,12.30
2023-05-16T08:18:18.788Z,12.59
2023-05-16T08:20:47.893Z,12.74
2023-05-16T08:23:15.906Z,13.02
2023-05-16T08:25:44.040Z,13.15
2023-05-16T08:28:11.937Z,13.35
2023-05-16T08:30:42.439Z,13.36
2023-05-16T08:33:12.309Z,13.40
2023-05-16T08:35:43.988Z,13.37
2023-05-16T08:38:12.098Z,13.45
2023-05-16T08:40:42.829Z,13.41
2023-05-16T08:43:10.758Z,13.38
2023-05-16T08:45:38.816Z,13.28
2023-05-16T08:48:10.390Z,13.27
2023-05-16T08:50:39.957Z,13.61
2023-05-16T08:53:09.642Z,13.93
2023-05-16T08:55:38.146Z,13.89
2023-05-16T08:58:06.060Z,13.65
2023-05-16T09:00:34.111Z,13.66
2023-05-16T09:03:02.519Z,13.71
2023-05-16T09:05:31.219Z,13.99
2023-05-16T09:08:00.854Z,14.18
2023-05-16T09:10:28.704Z,14.34
2023-05-16T09:12:56.724Z,14.28
2023-05-16T09:15:24.527Z,14.46
2023-05-16T09:17:52.732Z,14.59
2023-05-16T09:20:21.866Z,14.29
2023-05-16T09:22:56.334Z,13.78
2023-05-16T09:25:31.002Z,13.85
2023-05-16T09:28:01.697Z,13.96
2023-05-16T09:30:31.658Z,14.11
2023-05-16T09:33:00.413Z,14.11
2023-05-16T09:35:42.952Z,14.31
2023-05-16T09:38:15.179Z,14.57
2023-05-16T09:40:44.540Z,14.19
2023-05-16T09:43:16.790Z,14.16
2023-05-16T09:45:47.836Z,14.42
2023-05-16T09:48:17.049Z,14.65
2023-05-16T09:50:49.870Z,14.74
2023-05-16T09:53:17.797Z,14.75
2023-05-16T09:55:47.051Z,14.75
2023-05-16T09:58:18.816Z,15.03
2023-05-16T10:00:47.116Z,14.97
2023-05-16T10:03:16.702Z,15.06
2023-05-16T10:05:44.829Z,15.14
2023-05-16T10:08:13.592Z,15.09
2023-05-16T10:10:44.106Z,14.55
2023-05-16T10:13:14.372Z,14.55
2023-05-16T10:15:46.672Z,14.69
2023-05-16T10:18:15.784Z,14.97
2023-05-16T10:20:46.589Z,15.20
2023-05-16T10:23:18.956Z,14.85
2023-05-16T10:25:48.000Z,14.98
2023-05-16T10:28:17.945Z,14.78
2023-05-16T10:30:47.676Z,15.00
2023-05-16T10:33:20.294Z,15.15
2023-05-16T10:35:48.816Z,15.03
2023-05-16T10:38:19.648Z,15.28
2023-05-16T10:40:49.276Z,15.42
2023-05-16T10:43:26.914Z,15.76
2023-05-16T10:45:58.873Z,15.95
2023-05-16T10:48:31.533Z,15.95
2023-05-16T10:50:59.518Z,15.92
2023-05-16T10:53:31.936Z,16.01
2023-05-16T10:56:08.984Z,16.07
2023-05-16T10:58:48.813Z,16.09
2023-05-16T11:01:24.530Z,15.88
2023-05-16T11:04:06.915Z,15.94
2023-05-16T11:06:36.150Z,15.93
2023-05-16T11:09:10.140Z,15.96
2023-05-16T11:11:49.057Z,16.12
2023-05-16T11:14:23.661Z,16.14
2023-05-16T11:16:52.916Z,15.95
2023-05-16T11:19:32.153Z,15.98
2023-05-16T11:22:07.412Z,16.22
2023-05-16T11:24:36.350Z,16.20
2023-05-16T11:27:07.944Z,16.36
2023-05-16T11:29:37.751Z,16.38
2023-05-16T11:32:06.850Z,16.48
2023-05-16T11:34:39.658Z,16.67
2023-05-16T11:37:07.803Z,16.10
2023-05-16T11:39:37.815Z,16.01
2023-05-16T11:42:06.020Z,16.07
2023-05-16T11:44:33.938Z,16.31
2023-05-16T11:47:03.981Z,16.59
2023-05-16T11:49:32.343Z,16.98
2023-05-16T11:52:00.363Z,17.20
2023-05-16T11:54:28.472Z,17.19
2023-05-16T11:56:56.754Z,16.72
2023-05-16T11:59:25.502Z,16.63
2023-05-16T12:01:54.140Z,16.62
2023-05-16T12:04:24.299Z,15.71
2023-05-16T12:07:04.254Z,15.90
2023-05-16T12:09:32.176Z,16.35
2023-05-16T12:12:00.640Z,16.48
2023-05-16T12:14:28.655Z,16.48
2023-05-16T12:16:56.777Z,16.22
2023-05-16T12:19:26.481Z,16.32
2023-05-16T12:21:55.428Z,16.09
2023-05-16T12:24:23.379Z,16.25
2023-05-16T12:26:54.817Z,16.62
2023-05-16T12:29:25.186Z,16.67
2023-05-16T12:31:55.070Z,16.93
2023-05-16T12:34:23.400Z,16.90
2023-05-16T12:37:02.059Z,16.58
2023-05-16T12:39:38.490Z,16.10
2023-05-16T12:42:07.437Z,16.11
2023-05-16T12:44:38.235Z,16.41
2023-05-16T12:47:13.507Z,16.85
2023-05-16T12:49:46.329Z,17.01
2023-05-16T12:52:20.701Z,16.30
2023-05-16T12:54:49.396Z,16.13
2023-05-16T12:57:17.207Z,15.79
2023-05-16T12:59:45.121Z,15.98
2023-05-16T13:02:13.088Z,15.99
2023-05-16T13:04:41.727Z,16.15
2023-05-16T13:07:09.591Z,16.33
2023-05-16T13:09:38.834Z,16.69
2023-05-16T13:12:07.568Z,16.82
2023-05-16T13:14:35.444Z,16.89
2023-05-16T13:17:04.611Z,17.06
2023-05-16T13:19:32.684Z,17.17
2023-05-16T13:22:00.632Z,17.25
2023-05-16T13:24:28.725Z,16.97
2023-05-16T13:26:59.603Z,17.09
2023-05-16T13:29:27.657Z,17.15
2023-05-16T13:31:55.838Z,16.99
2023-05-16T13:34:23.857Z,16.84
2023-05-16T13:36:54.373Z,16.88
2023-05-16T13:39:23.325Z,16.87
2023-05-16T13:41:51.578Z,16.99
2023-05-16T13:44:22.533Z,17.07
2023-05-16T13:46:50.746Z,16.77
2023-05-16T13:49:18.792Z,16.75
2023-05-16T13:51:47.501Z,17.07
2023-05-16T13:54:15.330Z,17.32
2023-05-16T13:56:43.350Z,17.35
2023-05-16T13:59:14.234Z,17.33
2023-05-16T14:01:47.755Z,17.52
2023-05-16T14:04:15.970Z,17.09
2023-05-16T14:06:43.883Z,17.17
2023-05-16T14:09:13.232Z,17.24
2023-05-16T14:11:41.131Z,17.49
2023-05-16T14:14:08.975Z,17.76
2023-05-16T14:16:37.371Z,18.01
2023-05-16T14:19:06.707Z,17.75
2023-05-16T14:21:34.682Z,17.17
2023-05-16T14:24:02.655Z,17.44
2023-05-16T14:26:32.258Z,17.62
2023-05-16T14:29:00.918Z,17.22
2023-05-16T14:31:28.908Z,17.30
2023-05-16T14:33:57.124Z,17.48
2023-05-16T14:36:26.443Z,17.75
2023-05-16T14:38:54.250Z,17.79
2023-05-16T14:41:22.856Z,17.39
2023-05-16T14:43:51.040Z,17.20
2023-05-16T14:46:18.970Z,17.38
2023-05-16T14:48:47.011Z,17.01
2023-05-16T14:51:15.209Z,17.05
2023-05-16T14:53:46.936Z,16.78
2023-05-16T14:56:15.016Z,16.91
2023-05-16T14:58:43.073Z,17.25
2023-05-16T15:01:11.137Z,17.36
2023-05-16T15:06:10.543Z,17.37
2023-05-16T15:08:38.832Z,16.70
2023-05-16T15:11:08.107Z,16.84
2023-05-16T15:13:35.938Z,16.61
2023-05-16T15:16:04.247Z,16.89
2023-05-16T15:18:32.125Z,17.05
2023-05-16T15:21:00.127Z,17.29
2023-05-16T15:23:28.350Z,16.98
2023-05-16T15:25:56.263Z,16.99
2023-05-16T15:28:25.449Z,17.15
2023-05-16T15:30:53.473Z,17.04
2023-05-16T15:33:21.304Z,16.94
2023-05-16T15:35:49.312Z,16.85
2023-05-16T15:38:17.346Z,16.71
2023-05-16T15:40:45.151Z,16.70
2023-05-16T15:43:12.940Z,16.28
2023-05-16T15:45:44.947Z,16.14
2023-05-16T15:48:13.086Z,16.03
2023-05-16T15:50:41.930Z,16.19
2023-05-16T15:53:09.841Z,15.93
2023-05-16T15:55:38.108Z,15.99
2023-05-16T15:58:06.224Z,16.31
2023-05-16T16:00:34.143Z,16.15
2023-05-16T16:03:03.423Z,15.79
2023-05-16T16:05:31.269Z,15.79
2023-05-16T16:07:59.104Z,15.51
2023-05-16T16:10:27.281Z,15.84
2023-05-16T16:13:01.718Z,15.44
2023-05-16T16:15:32.820Z,15.70
2023-05-16T16:18:03.028Z,15.59
2023-05-16T16:20:31.010Z,15.28
2023-05-16T16:22:59.079Z,15.42
2023-05-16T16:25:27.313Z,15.49
2023-05-16T16:27:56.058Z,15.33
2023-05-16T16:30:23.961Z,15.31
2023-05-16T16:32:52.076Z,15.59
2023-05-16T16:35:22.512Z,15.59
2023-05-16T16:38:02.475Z,15.78
2023-05-16T16:40:34.439Z,15.38
2023-05-16T16:43:02.585Z,14.94
2023-05-16T16:45:30.808Z,14.78
2023-05-16T16:47:59.045Z,14.82
2023-05-16T16:50:28.248Z,14.83
2023-05-16T16:52:56.185Z,14.90
2023-05-16T16:55:24.002Z,14.83
2023-05-16T16:57:51.882Z,14.73
2023-05-16T17:00:20.806Z,14.72
2023-05-16T17:02:48.747Z,14.54
2023-05-16T17:05:16.664Z,14.79
2023-05-16T17:07:45.924Z,14.65
2023-05-16T17:10:13.812Z,14.75
2023-05-16T17:12:48.924Z,14.71
2023-05-16T17:15:17.418Z,14.72
2023-05-16T17:17:45.628Z,14.75
2023-05-16T17:20:14.440Z,14.71
2023-05-16T17:22:42.242Z,14.70
2023-05-16T17:25:11.818Z,14.63
2023-05-16T17:27:40.686Z,14.75
2023-05-16T17:30:10.536Z,14.94
2023-05-16T17:32:40.015Z,14.94
2023-05-16T17:35:08.347Z,14.84
2023-05-16T17:37:36.206Z,14.78
2023-05-16T17:40:05.869Z,14.64
2023-05-16T17:42:35.172Z,14.46
2023-05-16T17:45:04.962Z,14.53
2023-05-16T17:47:33.143Z,14.55
2023-05-16T17:50:01.216Z,14.55
2023-05-16T17:52:29.406Z,14.35
2023-05-16T17:54:57.299Z,14.37
2023-05-16T17:57:25.346Z,14.33
2023-05-16T17:59:54.735Z,14.27
2023-05-16T18:02:22.638Z,14.25
2023-05-16T18:04:50.483Z,14.07
2023-05-16T18:07:18.432Z,13.95
2023-05-16T18:09:46.389Z,13.95
2023-05-16T18:12:14.989Z,13.91
2023-05-16T18:14:45.260Z,13.74
2023-05-16T18:17:14.811Z,13.79
2023-05-16T18:19:42.906Z,13.79
2023-05-16T18:22:12.437Z,13.76
2023-05-16T18:24:40.752Z,13.74
2023-05-16T18:27:08.546Z,13.72
2023-05-16T18:29:36.311Z,13.78
2023-05-16T18:32:04.336Z,13.90
2023-05-16T18:34:34.085Z,13.83
2023-05-16T18:37:02.017Z,13.71
2023-05-16T18:39:29.969Z,13.60
2023-05-16T18:41:57.974Z,13.37
2023-05-16T18:44:25.766Z,13.30
2023-05-16T18:46:53.613Z,13.25
2023-05-16T18:49:21.697Z,13.04
2023-05-16T18:51:51.261Z,13.02
2023-05-16T18:54:20.607Z,12.93
2023-05-16T18:56:49.472Z,13.00
2023-05-16T18:59:18.784Z,13.05
2023-05-16T19:01:47.206Z,13.11
2023-05-16T19:04:15.225Z,13.16
2023-05-16T19:06:43.165Z,12.93
2023-05-16T19:09:12.371Z,13.13
2023-05-16T19:11:40.310Z,12.97
2023-05-16T19:14:08.721Z,12.99
2023-05-16T19:16:36.524Z,12.95
2023-05-16T19:19:05.298Z,12.91
2023-05-16T19:21:33.236Z,12.88
2023-05-16T19:24:01.239Z,12.85
2023-05-16T19:26:31.014Z,12.84
2023-05-16T19:28:59.142Z,12.71
2023-05-16T19:31:26.999Z,12.77
2023-05-16T19:33:54.979Z,12.71
2023-05-16T19:36:22.941Z,12.65
2023-05-16T19:38:50.771Z,12.62
2023-05-16T19:41:18.633Z,12.50
2023-05-16T19:43:47.843Z,12.44
2023-05-16T19:46:15.642Z,12.49
2023-05-16T19:48:43.452Z,12.48
2023-05-16T19:51:11.414Z,12.49
2023-05-16T19:53:39.209Z,12.50
2023-05-16T19:56:07.081Z,12.48
2023-05-16T19:58:34.941Z,12.43
2023-05-16T20:01:04.350Z,12.36
2023-05-16T20:03:32.575Z,12.24
2023-05-16T20:06:00.476Z,12.20
2023-05-16T20:08:28.457Z,12.10
2023-05-16T20:10:57.324Z,12.07
2023-05-16T20:13:26.275Z,11.99
2023-05-16T20:15:54.103Z,12.02
2023-05-16T20:18:23.679Z,11.98
2023-05-16T20:20:51.513Z,11.99
2023-05-16T20:23:19.578Z,11.89
2023-05-16T20:25:47.442Z,11.71
2023-05-16T20:28:15.325Z,11.82
2023-05-16T20:30:43.262Z,11.80
2023-05-16T20:33:11.225Z,11.75
2023-05-16T20:35:40.528Z,11.69
2023-05-16T20:38:08.748Z,11.75
2023-05-16T20:40:36.915Z,11.70
2023-05-16T20:43:04.826Z,11.68
2023-05-16T20:45:32.618Z,11.69
2023-05-16T20:48:00.705Z,11.62
2023-05-16T20:50:28.704Z,11.62
2023-05-16T20:52:58.060Z,11.61
2023-05-16T20:55:26.438Z,11.59
2023-05-16T20:57:54.447Z,11.48
2023-05-16T21:00:22.456Z,11.42
2023-05-16T21:02:50.320Z,11.36
2023-05-16T21:05:25.188Z,11.29
2023-05-16T21:07:53.595Z,11.23
2023-05-16T21:10:22.793Z,11.09
2023-05-16T21:12:50.828Z,11.06
2023-05-16T21:15:19.883Z,10.97
2023-05-16T21:17:49.691Z,10.99
2023-05-16T21:20:17.745Z,10.97
2023-05-16T21:22:45.657Z,10.91
2023-05-16T21:25:13.438Z,10.89
2023-05-16T21:27:44.321Z,10.87
2023-05-16T21:30:13.311Z,10.82
2023-05-16T21:32:41.250Z,10.86
2023-05-16T21:35:09.770Z,10.70
2023-05-16T21:37:37.641Z,10.66
2023-05-16T21:40:06.454Z,10.66
2023-05-16T21:42:34.366Z,10.69
2023-05-16T21:45:03.562Z,10.62
2023-05-16T21:47:34.435Z,10.60
2023-05-16T21:50:02.193Z,10.63
2023-05-16T21:52:30.120Z,10.63
2023-05-16T21:54:57.953Z,10.54
2023-05-16T21:57:25.814Z,10.54
2023-05-16T21:59:53.667Z,10.53
2023-05-16T22:02:23.501Z,10.47
2023-05-16T22:04:52.341Z,10.53
2023-05-16T22:07:20.518Z,10.46
2023-05-16T22:09:50.826Z,10.44
2023-05-16T22:12:21.662Z,10.44
2023-05-16T22:14:50.100Z,10.44
2023-05-16T22:17:19.276Z,10.40
2023-05-16T22:19:48.800Z,10.38
2023-05-16T22:22:16.966Z,10.32
2023-05-16T22:24:44.753Z,10.23
2023-05-16T22:27:12.574Z,10.16
2023-05-16T22:29:40.666Z,10.08
2023-05-16T22:32:09.295Z,10.03
2023-05-16T22:34:39.626Z,9.96
2023-05-16T22:37:09.588Z,9.98
2023-05-16T22:39:38.041Z,9.99
2023-05-16T22:42:06.551Z,9.99
2023-05-16T22:44:34.290Z,9.90
2023-05-16T22:47:02.068Z,9.90
2023-05-16T22:49:29.831Z,9.83
2023-05-16T22:51:57.604Z,9.87
2023-05-16T22:54:26.840Z,9.82
2023-05-16T22:56:54.762Z,9.82
2023-05-16T22:59:22.597Z,9.80
2023-05-16T23:01:50.476Z,9.78
2023-05-16T23:04:18.242Z,9.73
2023-05-16T23:06:46.097Z,9.76
2023-05-16T23:09:13.995Z,9.69
2023-05-16T23:11:43.224Z,9.64
2023-05-16T23:14:11.162Z,9.60
2023-05-16T23:16:38.966Z,9.69
2023-05-16T23:19:09.335Z,9.66
2023-05-16T23:21:37.586Z,9.59
2023-05-16T23:24:05.568Z,9.61
2023-05-16T23:26:33.341Z,9.61
2023-05-16T23:29:02.582Z,9.64
2023-05-16T23:31:30.671Z,9.61
2023-05-16T23:33:58.476Z,9.56
2023-05-16T23:36:26.351Z,9.51
2023-05-16T23:38:54.221Z,9.52
2023-05-16T23:41:22.117Z,9.54
2023-05-16T23:43:49.956Z,9.56
2023-05-16T23:46:19.139Z,9.47
2023-05-16T23:48:47.025Z,9.51
2023-05-16T23:51:14.822Z,9.50
2023-05-16T23:53:42.780Z,9.47
2023-05-16T23:56:10.654Z,9.45
2023-05-16T23:58:38.441Z,9.38
